Terminal Aerodrome Forecast
Issued by NWS

Current Version | Previous Version | Text Only | Print | Product List | Glossary Off
Versions: 1 2 3 4 5 6 7 8 9 10 11 12 13 14 15 16 17 18 19 20 21 22

000
FTUS41 KILN 030500 RRA
TAFLUK
TAF
KLUK 030545Z 0306/0406 07003KT P6SM OVC250
     FM031000 09003KT P6SM -FZRA OVC040
     FM031300 14005KT P6SM OVC030
     FM031500 16007KT 5SM BR BKN018 OVC040
     FM031900 21010KT 5SM -SHRA BR BKN015 OVC040
     FM032300 25010KT 3SM -RA BR OVC009=

USA.gov is the U.S. government's official web portal to all federal, state and local government web resources and services.